sensor_id;sensor_type;location;lat;lon;timestamp;P1;durP1;ratioP1;P2;durP2;ratioP2
44766;SDS011;30487;48.716;9.272;2023-07-31T00:00:11;3.70;;;1.38;;
44766;SDS011;30487;48.716;9.272;2023-07-31T00:02:37;5.60;;;1.50;;
44766;SDS011;30487;48.716;9.272;2023-07-31T00:05:03;4.28;;;1.48;;
44766;SDS011;30487;48.716;9.272;2023-07-31T00:07:29;5.65;;;1.50;;
44766;SDS011;30487;48.716;9.272;2023-07-31T00:09:55;5.38;;;1.48;;
44766;SDS011;30487;48.716;9.272;2023-07-31T00:12:21;4.13;;;1.50;;
44766;SDS011;30487;48.716;9.272;2023-07-31T00:14:47;2.80;;;1.05;;
44766;SDS011;30487;48.716;9.272;2023-07-31T00:17:13;6.45;;;1.40;;
44766;SDS011;30487;48.716;9.272;2023-07-31T00:19:38;3.30;;;1.20;;
44766;SDS011;30487;48.716;9.272;2023-07-31T00:22:04;3.30;;;1.20;;
44766;SDS011;30487;48.716;9.272;2023-07-31T00:24:30;4.55;;;1.25;;
44766;SDS011;30487;48.716;9.272;2023-07-31T00:26:55;3.80;;;1.40;;
44766;SDS011;30487;48.716;9.272;2023-07-31T00:29:21;4.95;;;1.25;;
44766;SDS011;30487;48.716;9.272;2023-07-31T00:31:46;3.97;;;1.30;;
44766;SDS011;30487;48.716;9.272;2023-07-31T00:34:12;4.80;;;1.30;;
44766;SDS011;30487;48.716;9.272;2023-07-31T00:36:37;7.47;;;1.50;;
44766;SDS011;30487;48.716;9.272;2023-07-31T00:39:03;3.72;;;1.40;;
44766;SDS011;30487;48.716;9.272;2023-07-31T00:41:29;4.28;;;1.40;;
44766;SDS011;30487;48.716;9.272;2023-07-31T00:43:55;5.40;;;1.30;;
44766;SDS011;30487;48.716;9.272;2023-07-31T00:46:20;4.38;;;1.33;;
44766;SDS011;30487;48.716;9.272;2023-07-31T00:48:46;4.55;;;1.40;;
44766;SDS011;30487;48.716;9.272;2023-07-31T00:51:12;5.40;;;1.45;;
44766;SDS011;30487;48.716;9.272;2023-07-31T00:53:38;4.63;;;1.40;;
44766;SDS011;30487;48.716;9.272;2023-07-31T00:56:05;2.88;;;1.30;;
44766;SDS011;30487;48.716;9.272;2023-07-31T00:58:31;4.15;;;1.33;;
44766;SDS011;30487;48.716;9.272;2023-07-31T01:00:56;3.45;;;1.45;;
44766;SDS011;30487;48.716;9.272;2023-07-31T01:03:22;7.38;;;1.40;;
44766;SDS011;30487;48.716;9.272;2023-07-31T01:06:04;3.08;;;1.23;;
44766;SDS011;30487;48.716;9.272;2023-07-31T01:11:28;4.18;;;1.20;;
44766;SDS011;30487;48.716;9.272;2023-07-31T01:13:56;4.10;;;1.48;;
44766;SDS011;30487;48.716;9.272;2023-07-31T01:16:22;3.60;;;1.20;;
44766;SDS011;30487;48.716;9.272;2023-07-31T01:18:48;4.43;;;1.10;;
44766;SDS011;30487;48.716;9.272;2023-07-31T01:26:47;4.05;;;1.45;;
44766;SDS011;30487;48.716;9.272;2023-07-31T01:29:23;3.20;;;1.13;;
44766;SDS011;30487;48.716;9.272;2023-07-31T01:31:53;3.22;;;1.20;;
44766;SDS011;30487;48.716;9.272;2023-07-31T01:34:20;3.03;;;1.20;;
44766;SDS011;30487;48.716;9.272;2023-07-31T01:36:47;2.05;;;1.10;;
44766;SDS011;30487;48.716;9.272;2023-07-31T01:39:12;3.88;;;1.15;;
44766;SDS011;30487;48.716;9.272;2023-07-31T01:41:40;4.75;;;1.58;;
44766;SDS011;30487;48.716;9.272;2023-07-31T01:44:06;4.82;;;1.30;;
44766;SDS011;30487;48.716;9.272;2023-07-31T01:46:31;3.72;;;1.30;;
44766;SDS011;30487;48.716;9.272;2023-07-31T01:48:57;4.43;;;1.30;;
44766;SDS011;30487;48.716;9.272;2023-07-31T01:51:22;3.28;;;1.20;;
44766;SDS011;30487;48.716;9.272;2023-07-31T01:53:48;7.50;;;1.20;;
44766;SDS011;30487;48.716;9.272;2023-07-31T01:56:13;5.32;;;1.15;;
44766;SDS011;30487;48.716;9.272;2023-07-31T01:58:39;2.97;;;1.00;;
44766;SDS011;30487;48.716;9.272;2023-07-31T02:01:04;3.33;;;1.50;;
44766;SDS011;30487;48.716;9.272;2023-07-31T02:03:30;4.80;;;1.35;;
44766;SDS011;30487;48.716;9.272;2023-07-31T02:05:56;5.90;;;1.55;;
44766;SDS011;30487;48.716;9.272;2023-07-31T02:08:21;4.80;;;1.40;;
44766;SDS011;30487;48.716;9.272;2023-07-31T02:10:47;6.32;;;1.30;;
44766;SDS011;30487;48.716;9.272;2023-07-31T02:13:12;4.72;;;1.30;;
44766;SDS011;30487;48.716;9.272;2023-07-31T02:15:38;3.08;;;1.23;;
44766;SDS011;30487;48.716;9.272;2023-07-31T02:18:04;5.07;;;1.20;;
44766;SDS011;30487;48.716;9.272;2023-07-31T02:20:29;5.07;;;1.38;;
44766;SDS011;30487;48.716;9.272;2023-07-31T02:22:57;3.25;;;1.27;;
44766;SDS011;30487;48.716;9.272;2023-07-31T02:25:23;3.45;;;1.50;;
44766;SDS011;30487;48.716;9.272;2023-07-31T02:27:49;3.25;;;1.40;;
44766;SDS011;30487;48.716;9.272;2023-07-31T02:30:14;3.83;;;1.15;;
44766;SDS011;30487;48.716;9.272;2023-07-31T02:32:40;3.03;;;1.35;;
44766;SDS011;30487;48.716;9.272;2023-07-31T02:35:05;3.35;;;1.35;;
44766;SDS011;30487;48.716;9.272;2023-07-31T02:37:31;4.28;;;1.42;;
44766;SDS011;30487;48.716;9.272;2023-07-31T02:39:57;3.53;;;1.30;;
44766;SDS011;30487;48.716;9.272;2023-07-31T02:42:22;5.20;;;1.30;;
44766;SDS011;30487;48.716;9.272;2023-07-31T02:44:48;4.45;;;1.20;;
44766;SDS011;30487;48.716;9.272;2023-07-31T02:47:14;3.05;;;1.02;;
44766;SDS011;30487;48.716;9.272;2023-07-31T02:49:39;3.60;;;1.17;;
44766;SDS011;30487;48.716;9.272;2023-07-31T02:52:05;2.22;;;1.08;;
44766;SDS011;30487;48.716;9.272;2023-07-31T02:54:31;3.97;;;1.90;;
44766;SDS011;30487;48.716;9.272;2023-07-31T02:56:56;5.53;;;1.38;;
44766;SDS011;30487;48.716;9.272;2023-07-31T02:59:22;3.92;;;1.50;;
44766;SDS011;30487;48.716;9.272;2023-07-31T03:01:47;3.72;;;1.30;;
44766;SDS011;30487;48.716;9.272;2023-07-31T03:04:13;2.47;;;1.17;;
44766;SDS011;30487;48.716;9.272;2023-07-31T03:06:38;6.95;;;1.80;;
44766;SDS011;30487;48.716;9.272;2023-07-31T03:09:04;4.38;;;1.48;;
44766;SDS011;30487;48.716;9.272;2023-07-31T03:11:29;3.25;;;1.48;;
44766;SDS011;30487;48.716;9.272;2023-07-31T03:13:55;4.68;;;1.40;;
44766;SDS011;30487;48.716;9.272;2023-07-31T03:16:20;2.72;;;1.17;;
44766;SDS011;30487;48.716;9.272;2023-07-31T03:18:46;3.22;;;1.23;;
44766;SDS011;30487;48.716;9.272;2023-07-31T03:21:12;3.80;;;1.38;;
44766;SDS011;30487;48.716;9.272;2023-07-31T03:23:37;4.93;;;1.30;;
44766;SDS011;30487;48.716;9.272;2023-07-31T03:26:05;3.08;;;1.10;;
44766;SDS011;30487;48.716;9.272;2023-07-31T03:28:32;7.00;;;1.30;;
44766;SDS011;30487;48.716;9.272;2023-07-31T03:30:57;2.83;;;1.20;;
44766;SDS011;30487;48.716;9.272;2023-07-31T03:33:23;3.80;;;1.20;;
44766;SDS011;30487;48.716;9.272;2023-07-31T03:35:49;3.88;;;1.20;;
44766;SDS011;30487;48.716;9.272;2023-07-31T03:38:14;5.03;;;1.60;;
44766;SDS011;30487;48.716;9.272;2023-07-31T03:40:40;4.68;;;1.50;;
44766;SDS011;30487;48.716;9.272;2023-07-31T03:43:05;4.95;;;1.33;;
44766;SDS011;30487;48.716;9.272;2023-07-31T03:45:31;3.08;;;1.25;;
44766;SDS011;30487;48.716;9.272;2023-07-31T03:47:56;5.55;;;1.60;;
44766;SDS011;30487;48.716;9.272;2023-07-31T03:50:22;3.63;;;1.30;;
44766;SDS011;30487;48.716;9.272;2023-07-31T03:52:48;3.63;;;1.40;;
44766;SDS011;30487;48.716;9.272;2023-07-31T03:55:13;3.13;;;1.30;;
44766;SDS011;30487;48.716;9.272;2023-07-31T03:57:39;4.50;;;1.38;;
44766;SDS011;30487;48.716;9.272;2023-07-31T04:00:04;5.07;;;1.50;;
44766;SDS011;30487;48.716;9.272;2023-07-31T04:02:30;3.30;;;1.35;;
44766;SDS011;30487;48.716;9.272;2023-07-31T04:04:56;4.47;;;1.60;;
44766;SDS011;30487;48.716;9.272;2023-07-31T04:07:21;3.72;;;1.40;;
44766;SDS011;30487;48.716;9.272;2023-07-31T04:09:47;5.20;;;1.35;;
44766;SDS011;30487;48.716;9.272;2023-07-31T04:12:12;3.92;;;1.33;;
44766;SDS011;30487;48.716;9.272;2023-07-31T04:14:38;6.00;;;1.40;;
44766;SDS011;30487;48.716;9.272;2023-07-31T04:17:03;5.03;;;1.35;;
44766;SDS011;30487;48.716;9.272;2023-07-31T04:19:29;4.03;;;1.20;;
44766;SDS011;30487;48.716;9.272;2023-07-31T04:21:55;6.00;;;1.40;;
44766;SDS011;30487;48.716;9.272;2023-07-31T04:24:20;6.07;;;1.60;;
44766;SDS011;30487;48.716;9.272;2023-07-31T04:26:52;3.47;;;1.30;;
44766;SDS011;30487;48.716;9.272;2023-07-31T04:29:18;3.47;;;1.48;;
44766;SDS011;30487;48.716;9.272;2023-07-31T04:31:44;4.97;;;1.40;;
44766;SDS011;30487;48.716;9.272;2023-07-31T04:34:10;9.40;;;1.60;;
44766;SDS011;30487;48.716;9.272;2023-07-31T04:36:36;4.80;;;1.70;;
44766;SDS011;30487;48.716;9.272;2023-07-31T04:39:02;4.75;;;1.45;;
44766;SDS011;30487;48.716;9.272;2023-07-31T04:41:28;4.18;;;1.50;;
44766;SDS011;30487;48.716;9.272;2023-07-31T04:43:53;3.47;;;1.50;;
44766;SDS011;30487;48.716;9.272;2023-07-31T04:46:19;4.50;;;1.50;;
44766;SDS011;30487;48.716;9.272;2023-07-31T04:48:44;7.72;;;1.50;;
44766;SDS011;30487;48.716;9.272;2023-07-31T04:51:10;4.15;;;1.60;;
44766;SDS011;30487;48.716;9.272;2023-07-31T04:53:36;4.43;;;1.55;;
44766;SDS011;30487;48.716;9.272;2023-07-31T04:56:01;5.13;;;1.63;;
44766;SDS011;30487;48.716;9.272;2023-07-31T04:58:27;4.60;;;1.73;;
44766;SDS011;30487;48.716;9.272;2023-07-31T05:00:52;6.97;;;1.83;;
44766;SDS011;30487;48.716;9.272;2023-07-31T05:03:18;3.17;;;1.35;;
44766;SDS011;30487;48.716;9.272;2023-07-31T05:05:43;4.82;;;1.73;;
44766;SDS011;30487;48.716;9.272;2023-07-31T05:08:09;4.10;;;1.58;;
44766;SDS011;30487;48.716;9.272;2023-07-31T05:10:34;4.22;;;1.60;;
44766;SDS011;30487;48.716;9.272;2023-07-31T05:13:00;3.95;;;1.42;;
44766;SDS011;30487;48.716;9.272;2023-07-31T05:15:26;3.47;;;1.60;;
44766;SDS011;30487;48.716;9.272;2023-07-31T05:17:51;4.10;;;1.40;;
44766;SDS011;30487;48.716;9.272;2023-07-31T05:20:17;4.40;;;1.50;;
44766;SDS011;30487;48.716;9.272;2023-07-31T05:22:42;4.82;;;1.85;;
44766;SDS011;30487;48.716;9.272;2023-07-31T05:25:08;6.82;;;1.52;;
44766;SDS011;30487;48.716;9.272;2023-07-31T05:27:33;4.53;;;1.52;;
44766;SDS011;30487;48.716;9.272;2023-07-31T05:29:59;3.28;;;1.35;;
44766;SDS011;30487;48.716;9.272;2023-07-31T05:32:25;3.72;;;1.40;;
44766;SDS011;30487;48.716;9.272;2023-07-31T05:34:51;4.47;;;1.40;;
44766;SDS011;30487;48.716;9.272;2023-07-31T05:37:17;5.57;;;1.42;;
44766;SDS011;30487;48.716;9.272;2023-07-31T05:39:43;7.85;;;1.98;;
44766;SDS011;30487;48.716;9.272;2023-07-31T05:42:08;5.18;;;1.55;;
44766;SDS011;30487;48.716;9.272;2023-07-31T05:44:34;3.13;;;1.30;;
44766;SDS011;30487;48.716;9.272;2023-07-31T05:46:59;6.03;;;1.58;;
44766;SDS011;30487;48.716;9.272;2023-07-31T05:49:25;2.90;;;1.55;;
44766;SDS011;30487;48.716;9.272;2023-07-31T05:51:51;4.18;;;1.60;;
44766;SDS011;30487;48.716;9.272;2023-07-31T05:54:16;4.50;;;1.67;;
44766;SDS011;30487;48.716;9.272;2023-07-31T05:56:42;3.97;;;1.38;;
44766;SDS011;30487;48.716;9.272;2023-07-31T05:59:08;5.10;;;1.52;;
44766;SDS011;30487;48.716;9.272;2023-07-31T06:01:35;5.45;;;1.70;;
44766;SDS011;30487;48.716;9.272;2023-07-31T06:04:01;5.57;;;1.50;;
44766;SDS011;30487;48.716;9.272;2023-07-31T06:06:28;4.57;;;1.42;;
44766;SDS011;30487;48.716;9.272;2023-07-31T06:08:53;5.18;;;1.42;;
44766;SDS011;30487;48.716;9.272;2023-07-31T06:11:20;4.43;;;1.40;;
44766;SDS011;30487;48.716;9.272;2023-07-31T06:13:45;4.05;;;1.48;;
44766;SDS011;30487;48.716;9.272;2023-07-31T06:16:13;2.60;;;1.23;;
44766;SDS011;30487;48.716;9.272;2023-07-31T06:18:39;3.38;;;1.50;;
44766;SDS011;30487;48.716;9.272;2023-07-31T06:21:05;3.92;;;1.50;;
44766;SDS011;30487;48.716;9.272;2023-07-31T06:23:31;3.95;;;1.30;;
44766;SDS011;30487;48.716;9.272;2023-07-31T06:25:56;4.97;;;1.50;;
44766;SDS011;30487;48.716;9.272;2023-07-31T06:28:26;3.25;;;1.35;;
44766;SDS011;30487;48.716;9.272;2023-07-31T06:30:56;4.07;;;1.20;;
44766;SDS011;30487;48.716;9.272;2023-07-31T06:33:25;4.68;;;1.30;;
44766;SDS011;30487;48.716;9.272;2023-07-31T06:35:51;5.75;;;1.30;;
44766;SDS011;30487;48.716;9.272;2023-07-31T06:38:22;7.00;;;1.52;;
44766;SDS011;30487;48.716;9.272;2023-07-31T06:40:49;2.72;;;1.27;;
44766;SDS011;30487;48.716;9.272;2023-07-31T06:43:15;5.13;;;1.38;;
44766;SDS011;30487;48.716;9.272;2023-07-31T06:45:41;4.07;;;1.30;;
44766;SDS011;30487;48.716;9.272;2023-07-31T06:48:06;4.55;;;1.20;;
44766;SDS011;30487;48.716;9.272;2023-07-31T06:50:32;3.88;;;1.40;;
44766;SDS011;30487;48.716;9.272;2023-07-31T06:52:58;4.25;;;1.30;;
44766;SDS011;30487;48.716;9.272;2023-07-31T06:55:24;3.40;;;1.40;;
44766;SDS011;30487;48.716;9.272;2023-07-31T06:57:50;3.45;;;1.40;;
44766;SDS011;30487;48.716;9.272;2023-07-31T07:00:17;6.70;;;1.40;;
44766;SDS011;30487;48.716;9.272;2023-07-31T07:02:44;4.85;;;1.50;;
44766;SDS011;30487;48.716;9.272;2023-07-31T07:05:12;3.50;;;1.38;;
44766;SDS011;30487;48.716;9.272;2023-07-31T07:07:37;4.20;;;1.45;;
44766;SDS011;30487;48.716;9.272;2023-07-31T07:10:03;5.38;;;1.65;;
44766;SDS011;30487;48.716;9.272;2023-07-31T07:12:29;3.42;;;1.27;;
44766;SDS011;30487;48.716;9.272;2023-07-31T07:14:55;5.07;;;1.52;;
44766;SDS011;30487;48.716;9.272;2023-07-31T07:17:22;3.50;;;1.73;;
44766;SDS011;30487;48.716;9.272;2023-07-31T07:19:48;3.35;;;1.40;;
44766;SDS011;30487;48.716;9.272;2023-07-31T07:22:14;2.60;;;1.30;;
44766;SDS011;30487;48.716;9.272;2023-07-31T07:24:40;4.28;;;1.67;;
44766;SDS011;30487;48.716;9.272;2023-07-31T07:27:06;4.65;;;1.95;;
44766;SDS011;30487;48.716;9.272;2023-07-31T07:29:33;2.83;;;1.20;;
44766;SDS011;30487;48.716;9.272;2023-07-31T07:31:59;5.22;;;1.60;;
44766;SDS011;30487;48.716;9.272;2023-07-31T07:34:25;3.85;;;1.65;;
44766;SDS011;30487;48.716;9.272;2023-07-31T07:36:52;4.95;;;1.50;;
44766;SDS011;30487;48.716;9.272;2023-07-31T07:39:18;5.25;;;1.70;;
44766;SDS011;30487;48.716;9.272;2023-07-31T07:41:44;3.70;;;1.40;;
44766;SDS011;30487;48.716;9.272;2023-07-31T07:44:09;7.38;;;1.67;;
44766;SDS011;30487;48.716;9.272;2023-07-31T07:46:35;4.68;;;1.50;;
44766;SDS011;30487;48.716;9.272;2023-07-31T07:49:00;3.03;;;1.25;;
44766;SDS011;30487;48.716;9.272;2023-07-31T07:51:26;4.20;;;1.48;;
44766;SDS011;30487;48.716;9.272;2023-07-31T07:53:52;6.13;;;1.83;;
44766;SDS011;30487;48.716;9.272;2023-07-31T07:56:17;5.35;;;1.70;;
44766;SDS011;30487;48.716;9.272;2023-07-31T07:58:43;4.85;;;1.50;;
44766;SDS011;30487;48.716;9.272;2023-07-31T08:01:08;5.03;;;1.52;;
44766;SDS011;30487;48.716;9.272;2023-07-31T08:03:34;6.00;;;1.48;;
44766;SDS011;30487;48.716;9.272;2023-07-31T08:05:59;4.97;;;1.60;;
44766;SDS011;30487;48.716;9.272;2023-07-31T08:08:26;4.45;;;1.58;;
44766;SDS011;30487;48.716;9.272;2023-07-31T08:10:52;6.80;;;1.80;;
44766;SDS011;30487;48.716;9.272;2023-07-31T08:13:18;6.35;;;1.73;;
44766;SDS011;30487;48.716;9.272;2023-07-31T08:15:43;5.43;;;1.52;;
44766;SDS011;30487;48.716;9.272;2023-07-31T08:18:09;5.03;;;1.58;;
44766;SDS011;30487;48.716;9.272;2023-07-31T08:20:36;4.03;;;1.38;;
44766;SDS011;30487;48.716;9.272;2023-07-31T08:23:02;4.13;;;1.58;;
44766;SDS011;30487;48.716;9.272;2023-07-31T08:25:27;2.95;;;1.50;;
44766;SDS011;30487;48.716;9.272;2023-07-31T08:27:53;4.80;;;1.95;;
44766;SDS011;30487;48.716;9.272;2023-07-31T08:30:19;3.22;;;1.38;;
44766;SDS011;30487;48.716;9.272;2023-07-31T08:32:45;8.25;;;1.77;;
44766;SDS011;30487;48.716;9.272;2023-07-31T08:35:10;4.35;;;1.50;;
44766;SDS011;30487;48.716;9.272;2023-07-31T08:37:37;7.38;;;1.88;;
44766;SDS011;30487;48.716;9.272;2023-07-31T08:40:03;4.57;;;1.60;;
44766;SDS011;30487;48.716;9.272;2023-07-31T08:42:30;5.13;;;1.38;;
44766;SDS011;30487;48.716;9.272;2023-07-31T08:44:56;7.22;;;1.80;;
44766;SDS011;30487;48.716;9.272;2023-07-31T08:47:22;8.20;;;1.90;;
44766;SDS011;30487;48.716;9.272;2023-07-31T08:49:49;5.68;;;1.73;;
44766;SDS011;30487;48.716;9.272;2023-07-31T08:52:16;8.35;;;2.00;;
44766;SDS011;30487;48.716;9.272;2023-07-31T08:54:41;7.18;;;1.67;;
44766;SDS011;30487;48.716;9.272;2023-07-31T08:57:07;3.70;;;1.63;;
44766;SDS011;30487;48.716;9.272;2023-07-31T08:59:35;6.07;;;1.80;;
44766;SDS011;30487;48.716;9.272;2023-07-31T09:02:05;6.22;;;1.85;;
44766;SDS011;30487;48.716;9.272;2023-07-31T09:04:32;5.38;;;1.63;;
44766;SDS011;30487;48.716;9.272;2023-07-31T09:07:02;4.72;;;1.50;;
44766;SDS011;30487;48.716;9.272;2023-07-31T09:09:29;6.03;;;1.60;;
44766;SDS011;30487;48.716;9.272;2023-07-31T09:11:56;5.00;;;2.00;;
44766;SDS011;30487;48.716;9.272;2023-07-31T09:14:22;5.32;;;1.77;;
44766;SDS011;30487;48.716;9.272;2023-07-31T09:19:26;4.65;;;1.80;;
44766;SDS011;30487;48.716;9.272;2023-07-31T09:21:52;7.05;;;1.85;;
44766;SDS011;30487;48.716;9.272;2023-07-31T09:24:31;3.45;;;1.50;;
44766;SDS011;30487;48.716;9.272;2023-07-31T09:26:58;6.13;;;1.80;;
44766;SDS011;30487;48.716;9.272;2023-07-31T09:29:25;5.47;;;1.90;;
44766;SDS011;30487;48.716;9.272;2023-07-31T09:31:51;7.43;;;1.67;;
44766;SDS011;30487;48.716;9.272;2023-07-31T09:34:17;4.30;;;1.90;;
44766;SDS011;30487;48.716;9.272;2023-07-31T09:36:44;4.22;;;1.85;;
44766;SDS011;30487;48.716;9.272;2023-07-31T09:39:15;8.02;;;1.92;;
44766;SDS011;30487;48.716;9.272;2023-07-31T09:41:46;5.65;;;1.88;;
44766;SDS011;30487;48.716;9.272;2023-07-31T09:44:18;5.55;;;1.80;;
44766;SDS011;30487;48.716;9.272;2023-07-31T09:46:43;5.68;;;2.13;;
44766;SDS011;30487;48.716;9.272;2023-07-31T09:49:09;5.22;;;1.80;;
44766;SDS011;30487;48.716;9.272;2023-07-31T09:51:37;7.03;;;1.80;;
44766;SDS011;30487;48.716;9.272;2023-07-31T09:54:13;5.20;;;2.03;;
44766;SDS011;30487;48.716;9.272;2023-07-31T09:56:43;5.18;;;2.00;;
44766;SDS011;30487;48.716;9.272;2023-07-31T09:59:11;7.10;;;2.00;;
44766;SDS011;30487;48.716;9.272;2023-07-31T10:01:39;8.98;;;2.22;;
44766;SDS011;30487;48.716;9.272;2023-07-31T10:04:05;5.65;;;1.90;;
44766;SDS011;30487;48.716;9.272;2023-07-31T10:06:34;6.13;;;2.00;;
44766;SDS011;30487;48.716;9.272;2023-07-31T10:09:00;4.60;;;1.85;;
44766;SDS011;30487;48.716;9.272;2023-07-31T10:11:28;6.38;;;1.92;;
44766;SDS011;30487;48.716;9.272;2023-07-31T10:13:58;6.72;;;1.80;;
44766;SDS011;30487;48.716;9.272;2023-07-31T10:16:24;5.82;;;1.67;;
44766;SDS011;30487;48.716;9.272;2023-07-31T10:18:50;7.50;;;2.13;;
44766;SDS011;30487;48.716;9.272;2023-07-31T10:21:18;4.05;;;1.75;;
44766;SDS011;30487;48.716;9.272;2023-07-31T10:23:46;5.57;;;1.90;;
44766;SDS011;30487;48.716;9.272;2023-07-31T10:26:14;6.03;;;2.00;;
44766;SDS011;30487;48.716;9.272;2023-07-31T10:28:41;4.85;;;1.83;;
44766;SDS011;30487;48.716;9.272;2023-07-31T10:31:09;7.38;;;1.90;;
44766;SDS011;30487;48.716;9.272;2023-07-31T10:33:34;5.82;;;2.15;;
44766;SDS011;30487;48.716;9.272;2023-07-31T10:38:59;4.07;;;1.65;;
44766;SDS011;30487;48.716;9.272;2023-07-31T10:41:28;4.03;;;1.90;;
44766;SDS011;30487;48.716;9.272;2023-07-31T10:43:56;5.75;;;1.55;;
44766;SDS011;30487;48.716;9.272;2023-07-31T10:46:23;6.30;;;1.98;;
44766;SDS011;30487;48.716;9.272;2023-07-31T10:48:51;5.90;;;2.05;;
44766;SDS011;30487;48.716;9.272;2023-07-31T10:51:34;5.10;;;1.98;;
44766;SDS011;30487;48.716;9.272;2023-07-31T10:54:10;6.05;;;2.30;;
44766;SDS011;30487;48.716;9.272;2023-07-31T10:56:40;5.20;;;1.85;;
44766;SDS011;30487;48.716;9.272;2023-07-31T10:59:09;8.13;;;2.08;;
44766;SDS011;30487;48.716;9.272;2023-07-31T11:01:50;5.45;;;1.95;;
44766;SDS011;30487;48.716;9.272;2023-07-31T11:04:21;7.13;;;1.77;;
44766;SDS011;30487;48.716;9.272;2023-07-31T11:06:57;3.72;;;1.60;;
44766;SDS011;30487;48.716;9.272;2023-07-31T11:09:28;5.65;;;2.03;;
44766;SDS011;30487;48.716;9.272;2023-07-31T11:11:55;5.97;;;2.00;;
44766;SDS011;30487;48.716;9.272;2023-07-31T11:14:21;3.53;;;1.90;;
44766;SDS011;30487;48.716;9.272;2023-07-31T11:16:49;6.18;;;1.95;;
44766;SDS011;30487;48.716;9.272;2023-07-31T11:19:20;6.35;;;1.90;;
44766;SDS011;30487;48.716;9.272;2023-07-31T11:21:50;6.05;;;1.70;;
44766;SDS011;30487;48.716;9.272;2023-07-31T11:24:17;5.57;;;1.98;;
44766;SDS011;30487;48.716;9.272;2023-07-31T11:26:52;10.25;;;1.95;;
44766;SDS011;30487;48.716;9.272;2023-07-31T11:29:19;4.47;;;1.90;;
44766;SDS011;30487;48.716;9.272;2023-07-31T11:31:46;3.92;;;1.92;;
44766;SDS011;30487;48.716;9.272;2023-07-31T11:34:13;6.93;;;2.38;;
44766;SDS011;30487;48.716;9.272;2023-07-31T11:36:38;5.43;;;2.28;;
44766;SDS011;30487;48.716;9.272;2023-07-31T11:39:07;6.63;;;1.95;;
44766;SDS011;30487;48.716;9.272;2023-07-31T11:41:34;4.75;;;2.00;;
44766;SDS011;30487;48.716;9.272;2023-07-31T11:44:00;6.00;;;1.90;;
44766;SDS011;30487;48.716;9.272;2023-07-31T11:46:26;7.57;;;2.10;;
44766;SDS011;30487;48.716;9.272;2023-07-31T11:48:51;5.75;;;2.30;;
44766;SDS011;30487;48.716;9.272;2023-07-31T11:51:17;3.80;;;1.70;;
44766;SDS011;30487;48.716;9.272;2023-07-31T11:53:50;7.93;;;2.30;;
44766;SDS011;30487;48.716;9.272;2023-07-31T11:56:19;6.57;;;2.42;;
44766;SDS011;30487;48.716;9.272;2023-07-31T11:58:46;5.53;;;2.13;;
44766;SDS011;30487;48.716;9.272;2023-07-31T12:01:14;4.43;;;2.05;;
44766;SDS011;30487;48.716;9.272;2023-07-31T12:03:41;6.88;;;2.30;;
44766;SDS011;30487;48.716;9.272;2023-07-31T12:06:07;7.95;;;1.95;;
44766;SDS011;30487;48.716;9.272;2023-07-31T12:08:33;5.28;;;2.10;;
44766;SDS011;30487;48.716;9.272;2023-07-31T12:11:02;5.72;;;1.90;;
44766;SDS011;30487;48.716;9.272;2023-07-31T12:13:30;5.13;;;2.05;;
44766;SDS011;30487;48.716;9.272;2023-07-31T12:15:57;5.43;;;1.75;;
44766;SDS011;30487;48.716;9.272;2023-07-31T12:18:24;7.07;;;2.20;;
44766;SDS011;30487;48.716;9.272;2023-07-31T12:23:23;7.80;;;1.80;;
44766;SDS011;30487;48.716;9.272;2023-07-31T12:26:06;7.18;;;2.20;;
44766;SDS011;30487;48.716;9.272;2023-07-31T12:28:36;6.38;;;2.13;;
44766;SDS011;30487;48.716;9.272;2023-07-31T12:31:03;6.50;;;2.10;;
44766;SDS011;30487;48.716;9.272;2023-07-31T12:33:33;4.03;;;1.80;;
44766;SDS011;30487;48.716;9.272;2023-07-31T12:36:01;5.82;;;2.30;;
44766;SDS011;30487;48.716;9.272;2023-07-31T12:38:28;5.35;;;2.40;;
44766;SDS011;30487;48.716;9.272;2023-07-31T12:40:54;5.00;;;1.90;;
44766;SDS011;30487;48.716;9.272;2023-07-31T12:43:19;5.85;;;1.92;;
44766;SDS011;30487;48.716;9.272;2023-07-31T12:45:45;5.03;;;2.00;;
44766;SDS011;30487;48.716;9.272;2023-07-31T12:48:12;6.55;;;2.00;;
44766;SDS011;30487;48.716;9.272;2023-07-31T12:50:38;5.53;;;2.05;;
44766;SDS011;30487;48.716;9.272;2023-07-31T12:53:04;7.05;;;2.10;;
44766;SDS011;30487;48.716;9.272;2023-07-31T12:55:30;8.10;;;2.17;;
44766;SDS011;30487;48.716;9.272;2023-07-31T12:57:56;5.68;;;2.17;;
44766;SDS011;30487;48.716;9.272;2023-07-31T13:00:22;6.03;;;2.55;;
44766;SDS011;30487;48.716;9.272;2023-07-31T13:02:47;6.50;;;1.90;;
44766;SDS011;30487;48.716;9.272;2023-07-31T13:05:14;7.78;;;2.20;;
44766;SDS011;30487;48.716;9.272;2023-07-31T13:07:40;8.80;;;2.33;;
44766;SDS011;30487;48.716;9.272;2023-07-31T13:10:06;3.47;;;1.88;;
44766;SDS011;30487;48.716;9.272;2023-07-31T13:12:32;4.45;;;1.98;;
44766;SDS011;30487;48.716;9.272;2023-07-31T13:14:58;6.10;;;1.85;;
44766;SDS011;30487;48.716;9.272;2023-07-31T13:17:24;7.90;;;1.88;;
44766;SDS011;30487;48.716;9.272;2023-07-31T13:19:49;6.03;;;1.80;;
44766;SDS011;30487;48.716;9.272;2023-07-31T13:22:15;3.80;;;1.77;;
44766;SDS011;30487;48.716;9.272;2023-07-31T13:24:40;8.00;;;2.13;;
44766;SDS011;30487;48.716;9.272;2023-07-31T13:27:06;4.40;;;2.00;;
44766;SDS011;30487;48.716;9.272;2023-07-31T13:29:31;6.05;;;2.03;;
44766;SDS011;30487;48.716;9.272;2023-07-31T13:31:57;4.53;;;1.98;;
44766;SDS011;30487;48.716;9.272;2023-07-31T13:34:23;4.68;;;1.83;;
44766;SDS011;30487;48.716;9.272;2023-07-31T13:36:48;4.47;;;1.98;;
44766;SDS011;30487;48.716;9.272;2023-07-31T13:39:14;5.63;;;1.98;;
44766;SDS011;30487;48.716;9.272;2023-07-31T13:41:40;4.22;;;2.08;;
44766;SDS011;30487;48.716;9.272;2023-07-31T13:44:05;6.10;;;2.05;;
44766;SDS011;30487;48.716;9.272;2023-07-31T13:46:31;4.03;;;2.00;;
44766;SDS011;30487;48.716;9.272;2023-07-31T13:48:57;4.18;;;2.03;;
44766;SDS011;30487;48.716;9.272;2023-07-31T13:51:24;8.70;;;1.80;;
44766;SDS011;30487;48.716;9.272;2023-07-31T13:53:50;4.15;;;1.92;;
44766;SDS011;30487;48.716;9.272;2023-07-31T13:56:16;4.22;;;1.90;;
44766;SDS011;30487;48.716;9.272;2023-07-31T13:58:41;4.68;;;2.17;;
44766;SDS011;30487;48.716;9.272;2023-07-31T14:01:07;4.72;;;1.98;;
44766;SDS011;30487;48.716;9.272;2023-07-31T14:03:32;5.75;;;1.83;;
44766;SDS011;30487;48.716;9.272;2023-07-31T14:05:58;6.32;;;1.90;;
44766;SDS011;30487;48.716;9.272;2023-07-31T14:08:24;5.22;;;2.00;;
44766;SDS011;30487;48.716;9.272;2023-07-31T14:10:49;6.72;;;1.90;;
44766;SDS011;30487;48.716;9.272;2023-07-31T14:13:15;7.82;;;2.25;;
44766;SDS011;30487;48.716;9.272;2023-07-31T14:15:43;5.50;;;1.75;;
44766;SDS011;30487;48.716;9.272;2023-07-31T14:18:09;4.65;;;2.00;;
44766;SDS011;30487;48.716;9.272;2023-07-31T14:20:35;3.78;;;1.83;;
44766;SDS011;30487;48.716;9.272;2023-07-31T14:23:01;4.13;;;1.92;;
44766;SDS011;30487;48.716;9.272;2023-07-31T14:25:27;6.70;;;2.15;;
44766;SDS011;30487;48.716;9.272;2023-07-31T14:27:53;8.38;;;2.22;;
44766;SDS011;30487;48.716;9.272;2023-07-31T14:30:18;4.82;;;1.88;;
44766;SDS011;30487;48.716;9.272;2023-07-31T14:32:44;3.55;;;1.73;;
44766;SDS011;30487;48.716;9.272;2023-07-31T14:35:09;6.28;;;1.92;;
44766;SDS011;30487;48.716;9.272;2023-07-31T14:37:39;6.05;;;1.90;;
44766;SDS011;30487;48.716;9.272;2023-07-31T14:40:06;4.45;;;2.05;;
44766;SDS011;30487;48.716;9.272;2023-07-31T14:42:33;7.82;;;2.13;;
44766;SDS011;30487;48.716;9.272;2023-07-31T14:44:59;4.68;;;2.13;;
44766;SDS011;30487;48.716;9.272;2023-07-31T14:47:25;3.95;;;1.70;;
44766;SDS011;30487;48.716;9.272;2023-07-31T14:49:50;6.13;;;1.98;;
44766;SDS011;30487;48.716;9.272;2023-07-31T14:52:16;4.40;;;2.00;;
44766;SDS011;30487;48.716;9.272;2023-07-31T14:54:41;4.47;;;1.90;;
44766;SDS011;30487;48.716;9.272;2023-07-31T14:57:07;5.65;;;2.25;;
44766;SDS011;30487;48.716;9.272;2023-07-31T14:59:33;8.25;;;1.92;;